Time;durP1;ratioP1;P1;durP2;ratioP2;P2;SDS_P1;SDS_P2;PMS_P1;PMS_P2;Temp;Humidity;BMP_temperature;BMP_pressure;BME280_temperature;BME280_humidity;BME280_pressure;Samples;Min_cycle;Max_cycle;Signal;HPM_P1;HPM_P2
2021/11/27 00:00:01;;;;;;;6.43;5.78;;;3.00;99.90;;;;;;2673939;28;20438;-64
2021/11/27 00:01:21;;;;;;;6.05;5.55;;;2.90;99.90;;;;;;2681858;28;20206;-64
2021/11/27 00:02:40;;;;;;;5.72;5.22;;;2.90;99.90;;;;;;2676160;28;20272;-64
2021/11/27 00:03:59;;;;;;;6.90;6.20;;;2.80;99.90;;;;;;2678235;28;20468;-64
2021/11/27 00:05:18;;;;;;;5.70;5.20;;;2.80;99.90;;;;;;2677568;28;20246;-64
2021/11/27 00:06:38;;;;;;;5.43;4.93;;;2.90;99.90;;;;;;2683381;28;20296;-64
2021/11/27 00:07:57;;;;;;;5.82;5.32;;;2.90;99.90;;;;;;2679034;28;20452;-64
2021/11/27 00:09:16;;;;;;;6.18;5.68;;;2.90;99.90;;;;;;2685140;28;20302;-64
2021/11/27 00:10:37;;;;;;;5.20;4.65;;;2.90;99.90;;;;;;2680797;28;20210;-64
2021/11/27 00:11:56;;;;;;;7.15;6.55;;;2.90;99.90;;;;;;2683975;28;20715;-64
2021/11/27 00:13:14;;;;;;;6.43;5.82;;;3.00;99.90;;;;;;2681449;28;20213;-64
2021/11/27 00:14:34;;;;;;;6.72;6.13;;;3.00;99.90;;;;;;2676879;28;20208;-64
2021/11/27 00:15:53;;;;;;;7.72;7.03;;;3.10;99.90;;;;;;2680940;28;20214;-64
2021/11/27 00:17:12;;;;;;;6.47;5.90;;;3.10;99.90;;;;;;2681505;28;20610;-64
2021/11/27 00:18:31;;;;;;;7.80;7.00;;;3.10;99.90;;;;;;2681111;28;20272;-64
2021/11/27 00:19:49;;;;;;;6.88;6.13;;;3.10;99.90;;;;;;2681727;28;20266;-64
2021/11/27 00:21:11;;;;;;;6.47;5.88;;;3.10;99.90;;;;;;2673458;28;20233;-64
2021/11/27 00:22:28;;;;;;;6.53;5.93;;;3.10;99.90;;;;;;2681288;28;20222;-64
2021/11/27 00:23:49;;;;;;;7.63;6.13;;;3.10;99.90;;;;;;2679486;28;20221;-64
2021/11/27 00:25:08;;;;;;;8.10;6.82;;;3.10;99.90;;;;;;2682679;28;20213;-64
2021/11/27 00:26:27;;;;;;;7.35;6.40;;;2.90;99.90;;;;;;2681124;28;20217;-64
2021/11/27 00:27:46;;;;;;;7.90;6.03;;;2.90;99.90;;;;;;2681334;28;20201;-64
2021/11/27 00:29:05;;;;;;;8.18;6.97;;;2.80;99.90;;;;;;2679486;28;20206;-64
2021/11/27 00:30:27;;;;;;;6.70;6.10;;;2.80;99.90;;;;;;2681848;28;20209;-64
2021/11/27 00:31:47;;;;;;;6.95;6.30;;;2.70;99.90;;;;;;2682610;28;20207;-64
2021/11/27 00:33:06;;;;;;;7.35;5.85;;;2.70;99.90;;;;;;2680773;28;20732;-64
2021/11/27 00:34:25;;;;;;;6.78;6.07;;;2.70;99.90;;;;;;2678680;28;20205;-64
2021/11/27 00:35:44;;;;;;;6.90;6.18;;;2.60;99.90;;;;;;2683551;28;20200;-64
2021/11/27 00:37:03;;;;;;;6.50;5.57;;;2.60;99.90;;;;;;2680105;28;20243;-64
2021/11/27 00:38:22;;;;;;;6.78;6.13;;;2.60;99.90;;;;;;2678651;28;20201;-64
2021/11/27 00:39:41;;;;;;;6.40;5.80;;;2.50;99.90;;;;;;2679634;28;20638;-64
2021/11/27 00:41:00;;;;;;;6.57;5.97;;;2.50;99.90;;;;;;2683318;28;20211;-64
2021/11/27 00:42:18;;;;;;;6.78;5.90;;;2.40;99.90;;;;;;2677590;28;20203;-66
2021/11/27 00:43:37;;;;;;;6.82;6.15;;;2.30;99.90;;;;;;2680379;28;20251;-64
2021/11/27 00:44:55;;;;;;;7.43;6.18;;;2.30;99.90;;;;;;2678703;28;20209;-64
2021/11/27 00:46:14;;;;;;;6.50;5.90;;;2.30;99.90;;;;;;2680509;28;20768;-64
2021/11/27 00:47:33;;;;;;;7.18;6.43;;;2.20;99.90;;;;;;2683268;28;21021;-64
2021/11/27 00:48:52;;;;;;;6.75;6.10;;;2.20;99.90;;;;;;2679825;28;20206;-64
2021/11/27 00:50:13;;;;;;;6.57;5.88;;;2.10;99.90;;;;;;2680715;28;20649;-64
2021/11/27 00:51:33;;;;;;;7.00;5.75;;;2.00;99.90;;;;;;2678416;28;20264;-64
2021/11/27 00:52:50;;;;;;;7.75;7.07;;;1.90;99.90;;;;;;2680546;28;20271;-64
2021/11/27 00:54:11;;;;;;;6.93;6.22;;;1.90;99.90;;;;;;2683323;28;20320;-64
2021/11/27 00:55:31;;;;;;;6.22;5.65;;;1.80;99.90;;;;;;2679614;28;20301;-64
2021/11/27 00:56:51;;;;;;;7.72;6.90;;;1.80;99.90;;;;;;2683662;28;20206;-64
2021/11/27 00:58:11;;;;;;;7.80;7.10;;;1.80;99.90;;;;;;2678373;28;20400;-64
2021/11/27 00:59:29;;;;;;;8.20;7.38;;;1.90;99.90;;;;;;2683968;28;20198;-64
2021/11/27 01:00:55;;;;;;;7.90;7.22;;;2.00;99.90;;;;;;2678434;28;20682;-64
2021/11/27 01:02:13;;;;;;;7.68;6.93;;;2.00;99.90;;;;;;2679824;28;20217;-64
2021/11/27 01:03:34;;;;;;;7.30;6.47;;;2.10;99.90;;;;;;2682784;28;20202;-64
2021/11/27 01:04:52;;;;;;;7.30;6.60;;;2.20;99.90;;;;;;2678753;28;20298;-64
2021/11/27 01:06:13;;;;;;;6.50;5.90;;;2.30;99.90;;;;;;2687993;28;20608;-64
2021/11/27 01:07:32;;;;;;;7.13;5.95;;;2.50;99.90;;;;;;2681226;28;20214;-64
2021/11/27 01:08:55;;;;;;;6.45;5.93;;;2.50;99.90;;;;;;2686104;28;20642;-64
2021/11/27 01:10:17;;;;;;;5.85;5.35;;;2.70;99.90;;;;;;2678149;28;20324;-64
2021/11/27 01:11:42;;;;;;;7.53;6.28;;;2.80;99.90;;;;;;2672545;28;20232;-64
2021/11/27 01:13:01;;;;;;;6.30;5.72;;;2.80;99.90;;;;;;2677469;28;20717;-64
2021/11/27 01:14:25;;;;;;;6.60;6.00;;;2.80;99.90;;;;;;2677660;28;20215;-64
2021/11/27 01:15:44;;;;;;;6.28;5.68;;;2.90;99.90;;;;;;2674457;28;20232;-64
2021/11/27 01:17:06;;;;;;;6.00;5.50;;;3.00;99.90;;;;;;2684540;28;20261;-65
2021/11/27 01:18:25;;;;;;;4.97;4.50;;;3.00;99.90;;;;;;2679686;28;20296;-64
2021/11/27 01:19:44;;;;;;;5.70;5.20;;;3.00;99.90;;;;;;2680916;28;20235;-64
2021/11/27 01:21:07;;;;;;;5.47;4.97;;;2.90;99.90;;;;;;2683329;28;20207;-64
2021/11/27 01:22:26;;;;;;;6.03;5.22;;;3.00;99.90;;;;;;2685234;28;20672;-64
2021/11/27 01:23:46;;;;;;;6.28;5.60;;;3.00;99.90;;;;;;2680134;28;20616;-64
2021/11/27 01:25:07;;;;;;;6.43;5.82;;;3.00;99.90;;;;;;2682845;28;20209;-64
2021/11/27 01:26:26;;;;;;;7.22;5.55;;;3.00;99.90;;;;;;2683807;28;20202;-64
2021/11/27 01:27:44;;;;;;;6.00;5.50;;;3.00;99.90;;;;;;2679789;28;20209;-64
2021/11/27 01:29:04;;;;;;;5.80;5.30;;;3.00;99.90;;;;;;2677581;28;20203;-64
2021/11/27 01:30:23;;;;;;;5.85;5.25;;;3.00;99.90;;;;;;2679668;28;20480;-64
2021/11/27 01:31:41;;;;;;;7.90;6.68;;;3.10;99.90;;;;;;2683045;28;20209;-64
2021/11/27 01:33:01;;;;;;;7.18;6.40;;;3.10;99.90;;;;;;2680555;28;20212;-64
2021/11/27 01:34:18;;;;;;;8.70;6.35;;;3.10;99.90;;;;;;2680176;28;20213;-64
2021/11/27 01:35:37;;;;;;;6.30;5.70;;;3.10;99.90;;;;;;2678964;28;20261;-64
2021/11/27 01:36:55;;;;;;;7.15;5.93;;;3.10;99.90;;;;;;2683064;28;20967;-64
2021/11/27 01:38:13;;;;;;;5.70;5.18;;;3.10;99.90;;;;;;2675688;28;20248;-64
2021/11/27 01:39:32;;;;;;;6.55;5.85;;;3.10;99.90;;;;;;2679913;28;20672;-64
2021/11/27 01:40:51;;;;;;;6.70;6.10;;;3.20;99.90;;;;;;2676807;28;20217;-64
2021/11/27 01:42:11;;;;;;;7.07;5.97;;;3.10;99.90;;;;;;2682845;28;20218;-64
2021/11/27 01:43:32;;;;;;;6.90;6.30;;;3.10;99.90;;;;;;2680487;28;21135;-64
2021/11/27 01:44:50;;;;;;;6.20;5.70;;;3.10;99.90;;;;;;2679087;28;20209;-64
2021/11/27 01:46:09;;;;;;;7.15;6.38;;;3.10;99.90;;;;;;2681292;28;20801;-65
2021/11/27 01:47:28;;;;;;;7.05;6.00;;;3.10;99.90;;;;;;2678560;28;20210;-64
2021/11/27 01:48:47;;;;;;;6.93;6.25;;;3.10;99.90;;;;;;2683467;28;20203;-64
2021/11/27 01:50:07;;;;;;;6.65;6.10;;;3.00;99.90;;;;;;2678844;28;20315;-64
2021/11/27 01:51:25;;;;;;;6.90;6.30;;;3.00;99.90;;;;;;2679587;28;20201;-64
2021/11/27 01:52:44;;;;;;;7.55;6.63;;;3.10;99.90;;;;;;2678760;28;20537;-64
2021/11/27 01:54:07;;;;;;;5.75;5.25;;;3.10;99.90;;;;;;2680365;28;20286;-64
2021/11/27 01:55:27;;;;;;;6.38;5.78;;;3.10;99.90;;;;;;2681840;28;20648;-64
2021/11/27 01:56:52;;;;;;;6.70;6.20;;;3.10;99.90;;;;;;2680015;28;20191;-64
2021/11/27 01:58:10;;;;;;;6.13;5.63;;;3.00;99.90;;;;;;2684542;28;20210;-64
2021/11/27 01:59:35;;;;;;;7.60;6.78;;;3.00;99.90;;;;;;2679923;28;20479;-64
2021/11/27 02:00:59;;;;;;;6.07;5.57;;;2.90;99.90;;;;;;2674675;28;20647;-64
2021/11/27 02:02:19;;;;;;;6.25;5.75;;;2.90;99.90;;;;;;2680591;28;20231;-64
2021/11/27 02:03:39;;;;;;;7.38;6.45;;;3.00;99.90;;;;;;2678328;28;20257;-64
2021/11/27 02:04:58;;;;;;;6.45;5.85;;;2.90;99.90;;;;;;2686887;28;20667;-64
2021/11/27 02:06:20;;;;;;;6.45;5.78;;;2.80;99.90;;;;;;2682687;28;20235;-64
2021/11/27 02:07:40;;;;;;;6.00;5.50;;;2.90;99.90;;;;;;2681705;28;20230;-64
2021/11/27 02:09:00;;;;;;;6.32;5.50;;;2.90;99.90;;;;;;2683907;28;20283;-64
2021/11/27 02:10:20;;;;;;;6.20;5.45;;;2.90;99.90;;;;;;2679672;28;20231;-64
2021/11/27 02:11:38;;;;;;;6.45;5.72;;;2.90;99.90;;;;;;2680114;28;20643;-64
2021/11/27 02:12:57;;;;;;;5.93;5.20;;;2.90;99.90;;;;;;2683680;28;20228;-64
2021/11/27 02:14:15;;;;;;;5.63;5.13;;;3.00;99.90;;;;;;2682356;28;20232;-64
2021/11/27 02:15:34;;;;;;;5.65;5.15;;;3.00;99.90;;;;;;2672467;28;20763;-64
2021/11/27 02:16:53;;;;;;;5.57;5.10;;;3.10;99.90;;;;;;2675282;28;20539;-64
2021/11/27 02:18:12;;;;;;;5.40;4.90;;;3.20;99.90;;;;;;2678022;28;20207;-64
2021/11/27 02:19:30;;;;;;;6.10;5.60;;;3.20;99.90;;;;;;2677986;28;20256;-64
2021/11/27 02:21:06;;;;;;;6.05;5.18;;;3.30;99.90;;;;;;2679602;28;20201;-64
2021/11/27 02:22:25;;;;;;;6.40;5.40;;;3.30;99.90;;;;;;2674228;28;20208;-64
2021/11/27 02:23:44;;;;;;;5.35;4.95;;;3.40;99.90;;;;;;2679338;28;20330;-64
2021/11/27 02:25:08;;;;;;;5.80;5.30;;;3.50;99.90;;;;;;2679136;28;20205;-64
2021/11/27 02:26:30;;;;;;;6.20;5.53;;;3.50;99.90;;;;;;2686722;28;20206;-65
2021/11/27 02:27:52;;;;;;;5.63;5.13;;;3.50;99.90;;;;;;2682261;28;20261;-64
2021/11/27 02:29:17;;;;;;;5.70;5.20;;;3.60;99.90;;;;;;2684094;28;20202;-64
2021/11/27 02:30:35;;;;;;;5.18;4.68;;;3.50;99.90;;;;;;2677983;28;20230;-64
2021/11/27 02:31:54;;;;;;;5.05;4.65;;;3.50;99.90;;;;;;2678495;28;20218;-64
2021/11/27 02:33:13;;;;;;;5.80;5.30;;;3.60;99.90;;;;;;2679280;28;20213;-64
2021/11/27 02:34:33;;;;;;;5.10;4.70;;;3.50;99.90;;;;;;2677913;28;20227;-65
2021/11/27 02:35:51;;;;;;;5.18;4.68;;;3.60;99.90;;;;;;2674502;28;20266;-64
2021/11/27 02:37:10;;;;;;;5.97;5.38;;;3.70;99.90;;;;;;2678675;28;20342;-64
2021/11/27 02:38:29;;;;;;;6.00;5.00;;;3.70;99.90;;;;;;2679712;28;20213;-64
2021/11/27 02:39:48;;;;;;;5.55;5.13;;;3.70;99.90;;;;;;2681138;28;20702;-65
2021/11/27 02:41:07;;;;;;;4.90;4.50;;;3.70;99.80;;;;;;2678314;28;20208;-65
2021/11/27 02:42:26;;;;;;;5.47;4.72;;;3.70;99.90;;;;;;2678633;28;20211;-64
2021/11/27 02:43:45;;;;;;;5.82;5.15;;;3.80;99.80;;;;;;2672045;28;20630;-64
2021/11/27 02:45:09;;;;;;;5.50;5.10;;;3.80;99.70;;;;;;2680630;28;20218;-64
2021/11/27 02:46:28;;;;;;;5.25;4.75;;;3.80;99.70;;;;;;2672698;28;20203;-65
2021/11/27 02:47:46;;;;;;;4.97;4.63;;;3.80;99.80;;;;;;2677741;28;20549;-64
2021/11/27 02:49:07;;;;;;;5.20;4.60;;;3.70;99.90;;;;;;2681311;28;20248;-64
2021/11/27 02:50:26;;;;;;;5.30;4.50;;;3.60;99.90;;;;;;2675633;28;20221;-64
2021/11/27 02:51:45;;;;;;;6.20;5.45;;;3.60;99.90;;;;;;2675091;28;20202;-64
2021/11/27 02:53:04;;;;;;;5.22;4.75;;;3.60;99.90;;;;;;2676292;28;20239;-64
2021/11/27 02:54:25;;;;;;;6.55;5.10;;;3.70;99.90;;;;;;2680168;28;20664;-64
2021/11/27 02:55:44;;;;;;;5.10;4.70;;;3.70;99.90;;;;;;2673950;28;20314;-64
2021/11/27 02:57:05;;;;;;;6.03;5.25;;;3.70;99.80;;;;;;2681361;28;20210;-64
2021/11/27 02:58:23;;;;;;;4.72;4.22;;;3.70;99.90;;;;;;2683637;28;20255;-64
2021/11/27 02:59:43;;;;;;;4.97;4.57;;;3.80;99.90;;;;;;2671468;28;20291;-65
2021/11/27 03:01:04;;;;;;;5.32;4.82;;;3.70;99.80;;;;;;2673733;28;20202;-64
2021/11/27 03:02:23;;;;;;;4.80;4.40;;;3.70;99.80;;;;;;2671837;28;20203;-64
2021/11/27 03:03:42;;;;;;;4.82;4.35;;;3.80;99.90;;;;;;2680780;28;20212;-64
2021/11/27 03:05:01;;;;;;;4.80;4.40;;;3.80;99.90;;;;;;2683316;28;20645;-64
2021/11/27 03:06:19;;;;;;;4.53;4.15;;;3.90;99.70;;;;;;2685143;28;20212;-64
2021/11/27 03:07:39;;;;;;;4.65;4.25;;;3.80;99.70;;;;;;2677893;28;20201;-64
2021/11/27 03:08:57;;;;;;;4.70;4.20;;;3.80;99.60;;;;;;2678183;28;20258;-64
2021/11/27 03:10:18;;;;;;;4.95;4.50;;;3.80;99.80;;;;;;2677790;28;20493;-64
2021/11/27 03:11:37;;;;;;;4.70;4.40;;;3.90;99.70;;;;;;2679569;28;20213;-64
2021/11/27 03:12:56;;;;;;;4.45;4.05;;;3.90;99.70;;;;;;2683159;28;20651;-64
2021/11/27 03:14:14;;;;;;;4.63;4.20;;;3.90;99.60;;;;;;2678820;28;20577;-64
2021/11/27 03:15:37;;;;;;;4.80;4.40;;;3.90;99.70;;;;;;2678702;28;20211;-64
2021/11/27 03:16:57;;;;;;;4.20;3.83;;;3.90;99.70;;;;;;2678707;28;20193;-64
2021/11/27 03:18:17;;;;;;;3.88;3.58;;;3.90;99.60;;;;;;2678718;28;20210;-64
2021/11/27 03:19:39;;;;;;;4.97;4.57;;;3.90;99.70;;;;;;2676584;28;20212;-66
2021/11/27 03:20:58;;;;;;;4.72;4.32;;;3.90;99.70;;;;;;2675907;28;20336;-64
2021/11/27 03:22:20;;;;;;;4.50;4.10;;;3.90;99.70;;;;;;2677922;28;20214;-64
2021/11/27 03:23:39;;;;;;;4.55;4.15;;;4.00;99.90;;;;;;2673231;28;20198;-64
2021/11/27 03:24:57;;;;;;;3.85;3.45;;;4.00;99.80;;;;;;2679063;28;20200;-64
2021/11/27 03:26:17;;;;;;;4.10;3.70;;;4.00;99.70;;;;;;2682482;28;20206;-64
2021/11/27 03:27:35;;;;;;;3.90;3.60;;;4.00;99.70;;;;;;2673295;28;20277;-64
2021/11/27 03:28:54;;;;;;;4.43;4.10;;;4.10;99.80;;;;;;2685581;28;20203;-64
2021/11/27 03:30:17;;;;;;;4.07;3.58;;;4.10;99.70;;;;;;2679413;28;20242;-64
2021/11/27 03:31:35;;;;;;;4.55;4.15;;;4.10;99.70;;;;;;2677928;28;20269;-64
2021/11/27 03:32:54;;;;;;;3.80;3.50;;;4.10;99.60;;;;;;2679147;28;20622;-64
2021/11/27 03:34:13;;;;;;;4.65;4.25;;;4.10;99.70;;;;;;2678957;28;21045;-64
2021/11/27 03:35:32;;;;;;;4.63;4.03;;;4.00;99.60;;;;;;2673501;28;20209;-64
2021/11/27 03:36:50;;;;;;;4.05;3.75;;;4.10;99.80;;;;;;2674413;28;20198;-64
2021/11/27 03:38:09;;;;;;;4.53;3.93;;;4.10;99.50;;;;;;2674982;28;20576;-64
2021/11/27 03:39:28;;;;;;;5.75;4.07;;;4.10;99.50;;;;;;2677898;28;20960;-64
2021/11/27 03:40:46;;;;;;;4.32;3.92;;;4.10;99.50;;;;;;2678217;28;20205;-64
2021/11/27 03:42:08;;;;;;;3.88;3.55;;;4.20;99.60;;;;;;2674144;28;20205;-64
2021/11/27 03:43:27;;;;;;;4.32;3.92;;;4.20;99.40;;;;;;2678682;28;20213;-64
2021/11/27 03:44:48;;;;;;;3.83;3.42;;;4.20;99.40;;;;;;2674843;28;20614;-64
2021/11/27 03:46:08;;;;;;;3.85;3.55;;;4.20;99.50;;;;;;2681361;28;20204;-64
2021/11/27 03:47:27;;;;;;;3.50;3.20;;;4.20;99.60;;;;;;2679669;28;20686;-64
2021/11/27 03:48:46;;;;;;;3.08;2.88;;;4.30;99.80;;;;;;2681317;28;20714;-64
2021/11/27 03:50:05;;;;;;;3.60;2.45;;;4.20;99.80;;;;;;2680634;28;20260;-64
2021/11/27 03:51:26;;;;;;;3.30;3.10;;;4.20;99.90;;;;;;2678618;28;20205;-64
2021/11/27 03:52:44;;;;;;;3.10;2.90;;;4.20;99.90;;;;;;2686377;28;20668;-64
2021/11/27 03:54:04;;;;;;;3.58;2.88;;;4.10;99.90;;;;;;2682991;28;20223;-65
2021/11/27 03:55:22;;;;;;;2.97;2.78;;;4.10;99.90;;;;;;2680716;28;20211;-64
2021/11/27 03:56:41;;;;;;;3.15;2.90;;;4.10;99.90;;;;;;2677453;28;20209;-64
2021/11/27 03:57:58;;;;;;;4.80;2.65;;;4.10;99.90;;;;;;2675065;28;20208;-65
2021/11/27 03:59:18;;;;;;;4.60;3.00;;;4.10;99.90;;;;;;2679057;28;20255;-64
2021/11/27 04:00:38;;;;;;;2.83;2.63;;;4.10;99.90;;;;;;2677973;28;20510;-64
2021/11/27 04:01:57;;;;;;;2.20;2.10;;;4.10;99.90;;;;;;2684587;28;20666;-65
2021/11/27 04:03:17;;;;;;;3.10;2.85;;;4.10;99.90;;;;;;2688157;28;20210;-64
2021/11/27 04:04:38;;;;;;;3.30;2.93;;;4.10;99.90;;;;;;2681513;28;20229;-64
2021/11/27 04:05:59;;;;;;;3.08;2.60;;;4.10;99.90;;;;;;2685231;28;20453;-64
2021/11/27 04:07:18;;;;;;;2.50;2.35;;;4.00;99.90;;;;;;2688762;28;20217;-64
2021/11/27 04:08:36;;;;;;;3.08;2.88;;;4.00;99.90;;;;;;2685744;28;20207;-65
2021/11/27 04:09:55;;;;;;;3.63;2.67;;;3.90;99.90;;;;;;2683941;28;20215;-64
2021/11/27 04:11:14;;;;;;;3.38;3.08;;;3.90;99.90;;;;;;2681004;28;20259;-64
2021/11/27 04:12:34;;;;;;;3.63;3.10;;;3.90;99.90;;;;;;2672987;28;20203;-64
2021/11/27 04:13:53;;;;;;;3.17;2.97;;;3.90;99.90;;;;;;2683848;28;20227;-64
2021/11/27 04:15:11;;;;;;;2.78;2.58;;;3.90;99.90;;;;;;2684961;28;20636;-64
2021/11/27 04:16:31;;;;;;;2.67;2.47;;;3.90;99.90;;;;;;2684390;28;20236;-64
2021/11/27 04:17:50;;;;;;;2.35;2.15;;;4.00;99.90;;;;;;2680498;28;20209;-64
2021/11/27 04:19:08;;;;;;;2.58;2.33;;;4.00;99.90;;;;;;2681469;28;20212;-65
2021/11/27 04:20:27;;;;;;;2.60;2.40;;;4.00;99.90;;;;;;2680112;28;20215;-65
2021/11/27 04:21:46;;;;;;;2.67;2.10;;;4.00;99.90;;;;;;2686580;28;20207;-64
2021/11/27 04:23:05;;;;;;;2.15;1.95;;;4.00;99.90;;;;;;2677047;28;20207;-64
2021/11/27 04:24:24;;;;;;;2.10;2.00;;;4.10;99.90;;;;;;2677186;28;20203;-64
2021/11/27 04:25:42;;;;;;;2.20;2.08;;;4.10;99.90;;;;;;2684675;28;20210;-65
2021/11/27 04:27:00;;;;;;;2.15;2.05;;;4.10;99.90;;;;;;2683525;28;20571;-64
2021/11/27 04:28:19;;;;;;;2.22;2.13;;;4.10;99.90;;;;;;2681792;28;20215;-65
2021/11/27 04:29:38;;;;;;;2.35;2.22;;;4.10;99.90;;;;;;2684275;28;20204;-65
2021/11/27 04:30:58;;;;;;;2.75;2.55;;;4.10;99.90;;;;;;2674907;28;20234;-64
2021/11/27 04:32:16;;;;;;;2.67;2.47;;;4.00;99.90;;;;;;2680384;28;20213;-64
2021/11/27 04:33:34;;;;;;;2.30;2.20;;;4.00;99.90;;;;;;2673428;28;20267;-64
2021/11/27 04:34:52;;;;;;;2.13;2.00;;;4.10;99.90;;;;;;2680376;28;20669;-64
2021/11/27 04:36:11;;;;;;;2.20;2.10;;;4.20;99.90;;;;;;2679462;28;20200;-65
2021/11/27 04:37:29;;;;;;;2.10;2.00;;;4.20;99.90;;;;;;2676402;28;20523;-64
2021/11/27 04:38:49;;;;;;;2.35;2.25;;;4.20;99.90;;;;;;2674273;28;20744;-64
2021/11/27 04:40:07;;;;;;;2.40;2.30;;;4.20;99.90;;;;;;2673171;28;20260;-65
2021/11/27 04:41:26;;;;;;;2.25;2.15;;;4.20;99.90;;;;;;2679478;28;20216;-65
2021/11/27 04:42:45;;;;;;;1.92;1.83;;;4.20;99.90;;;;;;2680510;28;20197;-64
2021/11/27 04:44:04;;;;;;;1.90;1.80;;;4.20;99.90;;;;;;2682155;28;20215;-65
2021/11/27 04:45:22;;;;;;;2.30;2.15;;;4.30;99.90;;;;;;2680740;28;20648;-64
2021/11/27 04:46:41;;;;;;;2.25;2.15;;;4.30;99.90;;;;;;2679882;28;20204;-64
2021/11/27 04:47:59;;;;;;;1.90;1.80;;;4.40;99.90;;;;;;2683548;28;20647;-64
2021/11/27 04:49:18;;;;;;;2.05;1.90;;;4.30;99.90;;;;;;2681464;28;20196;-64
2021/11/27 04:50:38;;;;;;;1.92;1.83;;;4.30;99.90;;;;;;2677812;28;20276;-64
2021/11/27 04:51:55;;;;;;;2.00;1.88;;;4.30;99.90;;;;;;2675262;28;20204;-64
2021/11/27 04:53:15;;;;;;;2.22;2.00;;;4.20;99.90;;;;;;2680344;28;20242;-64
2021/11/27 04:54:35;;;;;;;2.28;2.08;;;4.20;99.90;;;;;;2687164;28;20206;-65
2021/11/27 04:55:56;;;;;;;2.10;2.00;;;4.30;99.90;;;;;;2680299;28;20203;-65
2021/11/27 04:57:15;;;;;;;2.40;2.30;;;4.30;99.90;;;;;;2681235;28;20361;-65
2021/11/27 04:58:34;;;;;;;2.40;2.30;;;4.30;99.90;;;;;;2678601;28;20220;-65
2021/11/27 04:59:53;;;;;;;2.95;2.22;;;4.30;99.90;;;;;;2679101;28;20208;-64
2021/11/27 05:01:12;;;;;;;1.60;1.50;;;4.20;99.90;;;;;;2679812;28;20246;-64
2021/11/27 05:02:30;;;;;;;1.60;1.50;;;4.30;99.90;;;;;;2679865;28;20579;-64
2021/11/27 05:03:49;;;;;;;2.10;1.70;;;4.40;99.90;;;;;;2681601;28;20201;-65
2021/11/27 05:05:08;;;;;;;1.92;1.83;;;4.40;99.90;;;;;;2683253;28;20199;-64
2021/11/27 05:06:27;;;;;;;1.95;1.83;;;4.40;99.90;;;;;;2677912;28;20319;-64
2021/11/27 05:07:45;;;;;;;1.90;1.80;;;4.30;99.90;;;;;;2688720;28;20203;-65
2021/11/27 05:09:04;;;;;;;2.00;1.90;;;4.30;99.90;;;;;;2680382;28;20275;-65
2021/11/27 05:10:23;;;;;;;1.85;1.75;;;4.30;99.90;;;;;;2688222;28;20201;-65
2021/11/27 05:11:42;;;;;;;2.65;2.45;;;4.40;99.90;;;;;;2679003;28;20227;-64
2021/11/27 05:13:01;;;;;;;2.00;1.90;;;4.30;99.90;;;;;;2680113;28;20206;-64
2021/11/27 05:14:19;;;;;;;1.88;1.77;;;4.40;99.90;;;;;;2680143;28;20201;-65
2021/11/27 05:15:38;;;;;;;2.03;1.92;;;4.30;99.90;;;;;;2683574;28;20211;-64
2021/11/27 05:16:56;;;;;;;2.08;1.98;;;4.30;99.90;;;;;;2684127;28;20258;-64
2021/11/27 05:18:15;;;;;;;2.73;2.23;;;4.30;99.90;;;;;;2679541;28;20671;-64
2021/11/27 05:19:34;;;;;;;1.95;1.85;;;4.30;99.90;;;;;;2683850;28;20470;-65
2021/11/27 05:20:53;;;;;;;1.50;1.40;;;4.30;99.90;;;;;;2678704;28;20338;-64
2021/11/27 05:22:10;;;;;;;1.40;1.40;;;4.30;99.90;;;;;;2683066;28;20256;-64
2021/11/27 05:23:29;;;;;;;2.10;2.00;;;4.30;99.90;;;;;;2679219;28;20264;-65
2021/11/27 05:24:48;;;;;;;2.53;2.33;;;4.30;99.90;;;;;;2666663;28;20268;-64
2021/11/27 05:26:07;;;;;;;1.90;1.80;;;4.30;99.90;;;;;;2680533;28;20213;-64
2021/11/27 05:27:26;;;;;;;1.88;1.77;;;4.30;99.90;;;;;;2683391;28;20244;-64
2021/11/27 05:28:45;;;;;;;2.20;2.00;;;4.30;99.90;;;;;;2683470;28;20212;-64
2021/11/27 05:30:06;;;;;;;1.70;1.60;;;4.30;99.90;;;;;;2679515;28;20212;-65
2021/11/27 05:31:24;;;;;;;2.17;2.08;;;4.30;99.90;;;;;;2676341;28;20241;-65
2021/11/27 05:34:35;;;;;;;2.13;2.03;;;4.20;99.90;;;;;;2677466;28;20278;-64
2021/11/27 05:35:54;;;;;;;1.98;1.88;;;4.20;99.90;;;;;;2680200;28;20333;-64
2021/11/27 05:37:13;;;;;;;1.85;1.75;;;4.20;99.90;;;;;;2686533;28;20642;-65
2021/11/27 05:38:31;;;;;;;3.83;2.00;;;4.20;99.90;;;;;;2679857;28;20211;-65
2021/11/27 05:39:50;;;;;;;2.47;2.13;;;4.20;99.90;;;;;;2683358;28;20210;-65
2021/11/27 05:41:08;;;;;;;1.85;1.75;;;4.20;99.90;;;;;;2672504;28;20656;-65
2021/11/27 05:42:27;;;;;;;2.07;1.97;;;4.20;99.90;;;;;;2681010;28;20308;-65
2021/11/27 05:43:46;;;;;;;1.95;1.85;;;4.20;99.90;;;;;;2683828;28;20269;-64
2021/11/27 05:45:04;;;;;;;2.35;2.15;;;4.20;99.90;;;;;;2683864;28;20253;-64
2021/11/27 05:46:23;;;;;;;2.42;2.30;;;4.20;99.90;;;;;;2684397;28;20215;-65
2021/11/27 05:47:41;;;;;;;2.40;2.30;;;4.20;99.90;;;;;;2676218;28;20271;-65
2021/11/27 05:49:01;;;;;;;2.35;2.20;;;4.20;99.90;;;;;;2675600;28;20274;-64
2021/11/27 05:50:19;;;;;;;1.88;1.77;;;4.20;99.90;;;;;;2675992;28;20208;-64
2021/11/27 05:51:37;;;;;;;2.33;2.13;;;4.10;99.90;;;;;;2678988;28;20685;-64
2021/11/27 05:52:56;;;;;;;2.23;2.13;;;4.10;99.90;;;;;;2679815;28;20264;-64
2021/11/27 05:54:14;;;;;;;2.00;1.90;;;4.10;99.90;;;;;;2679395;28;20451;-65
2021/11/27 05:55:34;;;;;;;2.10;2.00;;;4.10;99.90;;;;;;2680978;28;20221;-65
2021/11/27 05:56:51;;;;;;;2.58;2.40;;;4.10;99.90;;;;;;2677555;28;20223;-65
2021/11/27 05:58:10;;;;;;;2.55;2.35;;;4.10;99.90;;;;;;2676234;28;20657;-65
2021/11/27 05:59:28;;;;;;;2.13;2.03;;;4.10;99.90;;;;;;2674827;28;20658;-67
2021/11/27 06:00:48;;;;;;;1.90;1.80;;;4.10;99.90;;;;;;2681933;28;20207;-65
2021/11/27 06:02:06;;;;;;;2.25;2.15;;;4.10;99.90;;;;;;2679710;28;20286;-65
2021/11/27 06:03:24;;;;;;;1.95;1.85;;;4.10;99.90;;;;;;2686841;28;20204;-67
2021/11/27 06:04:44;;;;;;;1.93;1.83;;;4.00;99.90;;;;;;2676763;28;20235;-66
2021/11/27 06:06:04;;;;;;;2.17;1.98;;;4.10;99.90;;;;;;2679429;28;20219;-66
2021/11/27 06:07:23;;;;;;;1.95;1.75;;;4.10;99.90;;;;;;2682445;28;20927;-66
2021/11/27 06:08:41;;;;;;;1.90;1.80;;;4.10;99.90;;;;;;2675724;28;20248;-66
2021/11/27 06:10:00;;;;;;;2.33;2.13;;;4.10;99.90;;;;;;2680141;28;20223;-66
2021/11/27 06:11:19;;;;;;;1.58;1.48;;;4.20;99.90;;;;;;2678825;28;20227;-67
2021/11/27 06:12:38;;;;;;;1.60;1.60;;;4.10;99.90;;;;;;2679163;28;20214;-66
2021/11/27 06:13:57;;;;;;;1.98;1.88;;;4.20;99.90;;;;;;2678968;28;20813;-66
2021/11/27 06:15:16;;;;;;;2.58;2.28;;;4.10;99.90;;;;;;2667839;28;20691;-66
2021/11/27 06:16:34;;;;;;;2.40;2.08;;;4.10;99.90;;;;;;2668266;28;20622;-66
2021/11/27 06:17:54;;;;;;;1.90;1.75;;;4.10;99.90;;;;;;2674047;28;20205;-66
2021/11/27 06:19:13;;;;;;;2.20;2.10;;;4.00;99.90;;;;;;2679597;28;20234;-66
2021/11/27 06:20:32;;;;;;;2.10;2.00;;;4.00;99.90;;;;;;2673833;28;20297;-66
2021/11/27 06:21:51;;;;;;;1.70;1.67;;;4.00;99.90;;;;;;2678668;28;20345;-66
2021/11/27 06:23:09;;;;;;;1.90;1.80;;;4.00;99.90;;;;;;2679196;28;20302;-66
2021/11/27 06:24:28;;;;;;;2.20;2.10;;;4.00;99.90;;;;;;2679922;28;20204;-66
2021/11/27 06:25:47;;;;;;;1.92;1.83;;;4.10;99.90;;;;;;2678863;28;20950;-66
2021/11/27 06:27:06;;;;;;;2.35;2.05;;;4.10;99.90;;;;;;2681626;28;20208;-66
2021/11/27 06:28:25;;;;;;;1.73;1.63;;;4.10;99.90;;;;;;2687064;28;20273;-67
2021/11/27 06:29:42;;;;;;;1.65;1.55;;;4.10;99.90;;;;;;2684412;28;20201;-66
2021/11/27 06:31:01;;;;;;;1.88;1.77;;;4.10;99.90;;;;;;2673345;28;20659;-66
2021/11/27 06:32:22;;;;;;;2.88;1.88;;;4.20;99.90;;;;;;2676984;28;20723;-66
2021/11/27 06:33:41;;;;;;;2.28;2.17;;;4.20;99.90;;;;;;2677954;28;20206;-66
2021/11/27 06:35:00;;;;;;;1.60;1.50;;;4.20;99.90;;;;;;2677343;28;20210;-66
2021/11/27 06:36:19;;;;;;;1.67;1.58;;;4.20;99.90;;;;;;2685032;28;20201;-66
2021/11/27 06:37:38;;;;;;;2.40;2.20;;;4.10;99.90;;;;;;2681096;28;20197;-66
2021/11/27 06:38:56;;;;;;;2.08;1.90;;;4.20;99.90;;;;;;2678108;28;20259;-66
2021/11/27 06:40:14;;;;;;;1.80;1.70;;;4.20;99.90;;;;;;2686210;28;20260;-66
2021/11/27 06:41:33;;;;;;;1.73;1.63;;;4.20;99.90;;;;;;2679163;28;20216;-67
2021/11/27 06:42:52;;;;;;;2.05;1.92;;;4.20;99.90;;;;;;2679403;28;20927;-67
2021/11/27 06:44:10;;;;;;;1.63;1.55;;;4.20;99.90;;;;;;2675210;28;20818;-67
2021/11/27 06:45:30;;;;;;;2.30;2.10;;;4.10;99.90;;;;;;2676620;28;21016;-67
2021/11/27 06:46:48;;;;;;;1.70;1.60;;;4.10;99.90;;;;;;2672847;28;20207;-67
2021/11/27 06:48:07;;;;;;;1.75;1.65;;;4.10;99.90;;;;;;2679321;28;20637;-67
2021/11/27 06:49:26;;;;;;;2.00;1.90;;;4.10;99.90;;;;;;2677668;28;20203;-67
2021/11/27 06:50:45;;;;;;;1.80;1.70;;;4.10;99.90;;;;;;2673523;28;20742;-67
2021/11/27 06:52:04;;;;;;;1.85;1.75;;;4.10;99.90;;;;;;2677887;28;20239;-67
2021/11/27 06:53:21;;;;;;;1.52;1.52;;;4.10;99.90;;;;;;2677718;28;20206;-66
2021/11/27 06:54:41;;;;;;;2.60;2.40;;;4.10;99.90;;;;;;2676473;28;20828;-67
2021/11/27 06:56:01;;;;;;;2.10;2.00;;;4.00;99.90;;;;;;2679189;28;20450;-66
2021/11/27 06:57:20;;;;;;;1.58;1.48;;;4.00;99.90;;;;;;2679008;28;20206;-66
2021/11/27 06:58:39;;;;;;;1.33;1.33;;;4.10;99.90;;;;;;2679067;28;20242;-67
2021/11/27 06:59:57;;;;;;;2.13;2.03;;;4.10;99.90;;;;;;2674925;28;20567;-67